Time;durP1;ratioP1;P1;durP2;ratioP2;P2;SDS_P1;SDS_P2;PMS_P1;PMS_P2;Temp;Humidity;BMP_temperature;BMP_pressure;BME280_temperature;BME280_humidity;BME280_pressure;Samples;Min_cycle;Max_cycle;Signal;HPM_P1;HPM_P2
2021/09/30 00:01:50;;;;;;;46.80;29.40;;;;;;;14.52;72.23;99562.97;235965;1195;139263;-63
2021/09/30 00:06:53;;;;;;;46.50;30.80;;;;;;;14.53;72.39;99565.59;236424;1195;140326;-63
2021/09/30 00:12:02;;;;;;;44.70;30.70;;;;;;;14.54;72.62;99566.58;236149;1195;140822;-64
2021/09/30 00:49:30;;;;;;;45.20;29.90;;;;;;;14.67;73.02;99577.11;235471;1195;142050;-61
2021/09/30 00:55:00;;;;;;;46.20;31.20;;;;;;;14.65;73.04;99575.45;236199;1195;138917;-59
2021/09/30 02:22:11;;;;;;;48.90;32.30;;;;;;;14.69;74.10;99619.14;235745;1195;139734;-63
2021/09/30 02:59:15;;;;;;;41.00;30.40;;;;;;;14.84;74.45;99636.41;236061;1195;139829;-58
2021/09/30 03:04:21;;;;;;;44.40;30.40;;;;;;;14.90;74.54;99640.48;235324;1195;140019;-62
2021/09/30 03:09:44;;;;;;;44.20;29.70;;;;;;;14.91;74.64;99642.06;235790;1195;140829;-61
2021/09/30 03:14:59;;;;;;;38.20;27.70;;;;;;;14.93;74.67;99643.31;235729;1196;140100;-64
2021/09/30 03:20:15;;;;;;;39.90;28.90;;;;;;;14.95;74.66;99647.19;236056;1195;139323;-64
2021/09/30 03:25:19;;;;;;;43.10;30.30;;;;;;;14.95;74.62;99650.36;235523;1196;140103;-63
2021/09/30 03:30:25;;;;;;;39.20;28.80;;;;;;;14.94;74.76;99654.48;235742;1196;140299;-63
2021/09/30 03:35:31;;;;;;;36.60;27.40;;;;;;;14.96;74.95;99654.55;236102;1195;139748;-65
2021/09/30 03:40:35;;;;;;;39.80;29.00;;;;;;;15.00;74.89;99659.63;236382;1195;140164;-61
2021/09/30 03:45:39;;;;;;;61.80;44.20;;;;;;;15.09;75.21;99665.40;235818;1196;140458;-59
2021/09/30 03:56:31;;;;;;;43.70;30.60;;;;;;;15.34;74.99;99658.99;236040;1195;139156;-59
2021/09/30 04:01:34;;;;;;;39.50;28.70;;;;;;;15.28;74.68;99662.67;236049;1195;141733;-59
2021/09/30 04:06:38;;;;;;;43.20;28.80;;;;;;;15.24;74.74;99671.88;235595;1195;140313;-60
2021/09/30 04:11:45;;;;;;;42.70;28.90;;;;;;;15.24;74.90;99683.17;236243;1195;139504;-62
2021/09/30 04:16:48;;;;;;;123.20;98.40;;;;;;;15.27;74.92;99692.77;235994;1195;139113;-59
2021/09/30 04:21:54;;;;;;;54.00;37.40;;;;;;;15.33;75.17;99694.44;236035;1195;140273;-61
2021/09/30 04:26:57;;;;;;;42.30;30.00;;;;;;;15.38;75.04;99697.32;236194;1195;139411;-63
2021/09/30 04:32:01;;;;;;;41.20;28.70;;;;;;;15.38;74.93;99707.66;235843;1195;140103;-64
2021/09/30 04:37:04;;;;;;;44.50;30.30;;;;;;;15.42;74.93;99704.60;235910;1195;139997;-63
2021/09/30 04:42:07;;;;;;;41.90;30.10;;;;;;;15.44;74.84;99702.69;235671;1195;140197;-61
2021/09/30 04:47:11;;;;;;;46.50;32.40;;;;;;;15.43;74.82;99695.52;235807;1195;140399;-63
2021/09/30 04:52:24;;;;;;;43.90;29.30;;;;;;;15.45;74.88;99702.97;236080;1195;139009;-62
2021/09/30 04:57:27;;;;;;;43.30;29.30;;;;;;;15.47;74.79;99705.43;235764;1195;140466;-60
2021/09/30 05:02:30;;;;;;;43.20;31.50;;;;;;;15.57;75.02;99711.58;235577;1194;140392;-61
2021/09/30 05:07:34;;;;;;;46.00;31.50;;;;;;;15.58;74.70;99725.42;236518;1195;138711;-61
2021/09/30 05:12:38;;;;;;;49.10;33.90;;;;;;;15.55;74.71;99732.96;236001;1194;138947;-64
2021/09/30 05:17:42;;;;;;;42.40;29.60;;;;;;;15.53;74.86;99732.02;235738;1196;139082;-61
2021/09/30 05:22:45;;;;;;;43.90;30.00;;;;;;;15.60;74.96;99736.52;235950;1195;141039;-62
2021/09/30 05:27:51;;;;;;;45.30;32.80;;;;;;;15.66;74.97;99742.61;236141;1194;139680;-61
2021/09/30 05:32:55;;;;;;;47.90;33.10;;;;;;;15.73;74.63;99750.66;236200;1195;138824;-61
2021/09/30 05:37:58;;;;;;;47.60;33.30;;;;;;;15.73;74.90;99756.41;235690;1195;139827;-61
2021/09/30 05:43:04;;;;;;;47.80;32.40;;;;;;;15.70;74.78;99763.05;235948;1195;141363;-59
2021/09/30 05:48:08;;;;;;;46.30;30.50;;;;;;;15.68;74.73;99768.55;236028;1195;139555;-63
2021/09/30 05:53:11;;;;;;;46.20;32.80;;;;;;;15.68;74.71;99778.23;235729;1195;140117;-62
2021/09/30 05:58:35;;;;;;;48.20;33.70;;;;;;;15.69;74.73;99779.02;235823;1195;140142;-62
2021/09/30 06:14:12;;;;;;;45.90;31.30;;;;;;;15.76;74.65;99795.73;236312;1194;139804;-62
2021/09/30 06:19:22;;;;;;;48.20;33.60;;;;;;;15.73;74.49;99807.01;235826;1195;140384;-63
2021/09/30 06:24:30;;;;;;;58.00;34.40;;;;;;;15.70;74.87;99817.27;235603;1196;139145;-63
2021/09/30 06:29:35;;;;;;;46.20;32.10;;;;;;;15.63;74.79;99829.88;235747;1196;139499;-61
2021/09/30 06:34:41;;;;;;;44.80;30.90;;;;;;;15.59;74.79;99833.16;236006;1195;140033;-61
2021/09/30 06:39:53;;;;;;;51.60;34.70;;;;;;;15.58;74.91;99835.20;235694;1196;139997;-63
2021/09/30 06:44:57;;;;;;;51.50;34.30;;;;;;;15.55;75.00;99829.89;236171;1195;139022;-62
2021/09/30 06:50:07;;;;;;;47.40;32.50;;;;;;;15.52;74.77;99841.73;236124;1195;139650;-63
2021/09/30 06:55:43;;;;;;;43.50;31.10;;;;;;;15.44;74.93;99851.47;235705;1196;140456;-60
2021/09/30 07:01:07;;;;;;;50.60;34.50;;;;;;;15.38;74.82;99860.59;236286;1194;139848;-60
2021/09/30 07:06:30;;;;;;;44.50;28.90;;;;;;;15.32;75.04;99877.97;235916;1195;139086;-61
2021/09/30 07:11:33;;;;;;;43.10;29.30;;;;;;;15.25;74.89;99881.46;235420;1195;139910;-60
2021/09/30 07:16:37;;;;;;;43.70;29.50;;;;;;;15.23;74.74;99889.86;235748;1195;140029;-62
2021/09/30 07:21:40;;;;;;;36.20;25.50;;;;;;;15.25;74.75;99892.45;235850;1195;139254;-61
2021/09/30 07:26:45;;;;;;;36.00;23.90;;;;;;;15.22;74.47;99898.14;235958;1195;138824;-63
2021/09/30 07:31:48;;;;;;;165.60;108.30;;;;;;;15.19;74.22;99900.19;236108;1195;139981;-62
2021/09/30 07:36:51;;;;;;;34.70;23.20;;;;;;;15.27;74.33;99905.85;235658;1195;140277;-62
2021/09/30 07:41:54;;;;;;;31.90;20.90;;;;;;;15.28;73.86;99912.61;235826;1196;139094;-63
2021/09/30 07:46:57;;;;;;;23.40;15.90;;;;;;;15.26;73.71;99916.30;236001;1195;140385;-62
2021/09/30 07:52:01;;;;;;;17.80;12.30;;;;;;;15.16;73.01;99930.71;236248;1195;139667;-64
2021/09/30 07:57:04;;;;;;;723.60;461.80;;;;;;;15.05;72.55;99935.95;236336;1195;140462;-63
2021/09/30 08:02:07;;;;;;;27.00;17.40;;;;;;;15.02;72.52;99938.49;235673;1195;140035;-61
2021/09/30 08:07:11;;;;;;;17.60;12.90;;;;;;;14.96;72.11;99945.27;235831;1196;139433;-61
2021/09/30 08:12:14;;;;;;;17.20;11.30;;;;;;;14.84;72.02;99957.52;236010;1195;140381;-62
2021/09/30 08:17:18;;;;;;;16.10;10.40;;;;;;;14.69;71.68;99967.20;235800;1195;139943;-61
2021/09/30 08:22:21;;;;;;;13.70;9.80;;;;;;;14.57;71.60;99979.04;236002;1195;139782;-62
2021/09/30 08:27:24;;;;;;;15.90;10.60;;;;;;;14.51;71.79;99989.99;235697;1195;139832;-61
2021/09/30 08:32:27;;;;;;;15.40;9.00;;;;;;;14.44;71.75;99995.23;236058;1195;139098;-62
2021/09/30 08:37:32;;;;;;;9.90;7.20;;;;;;;14.33;71.50;99991.61;234974;1196;138994;-61
2021/09/30 08:42:36;;;;;;;69.80;48.60;;;;;;;14.25;71.44;100002.84;235859;1195;139529;-62
2021/09/30 08:47:40;;;;;;;16.70;10.40;;;;;;;14.60;73.55;100006.02;235631;1196;139618;-61
2021/09/30 08:52:44;;;;;;;14.20;8.60;;;;;;;14.68;71.81;100011.93;235989;1195;139676;-62
2021/09/30 08:57:49;;;;;;;14.90;7.50;;;;;;;14.51;70.95;100018.75;236153;1195;139322;-62
2021/09/30 09:02:52;;;;;;;17.80;9.80;;;;;;;14.40;70.96;100018.27;236102;1195;139675;-61
2021/09/30 09:08:04;;;;;;;15.90;8.60;;;;;;;14.37;71.21;100020.79;235965;1195;139992;-61
2021/09/30 09:13:15;;;;;;;16.00;9.60;;;;;;;14.34;71.08;100030.42;236003;1195;139553;-63
2021/09/30 09:18:27;;;;;;;16.80;10.00;;;;;;;14.32;71.12;100037.70;235928;1195;139779;-61
2021/09/30 09:23:32;;;;;;;15.90;9.80;;;;;;;14.35;71.30;100037.91;236308;1195;141450;-62
2021/09/30 09:28:38;;;;;;;10.80;8.10;;;;;;;14.39;71.48;100045.81;235860;1195;140598;-61
2021/09/30 09:33:41;;;;;;;10.30;8.00;;;;;;;14.42;71.33;100047.27;235644;1195;139407;-61
2021/09/30 09:38:51;;;;;;;10.30;7.80;;;;;;;14.46;71.04;100052.75;236068;1195;139244;-62
2021/09/30 09:43:57;;;;;;;31.10;20.10;;;;;;;14.49;71.25;100055.11;235910;1195;139916;-62
2021/09/30 09:49:19;;;;;;;11.80;7.30;;;;;;;14.58;71.07;100062.23;236022;1195;140328;-62
2021/09/30 09:54:26;;;;;;;10.10;7.20;;;;;;;14.61;70.66;100063.48;235719;1196;139176;-62
2021/09/30 09:59:40;;;;;;;13.20;7.50;;;;;;;14.63;70.72;100066.02;235708;1195;141115;-61
2021/09/30 10:04:44;;;;;;;12.60;7.40;;;;;;;14.65;70.62;100068.41;236134;1195;139183;-62
2021/09/30 10:09:47;;;;;;;10.90;6.80;;;;;;;14.64;70.44;100073.25;236128;1194;139086;-61
2021/09/30 10:14:51;;;;;;;8.90;5.60;;;;;;;14.61;70.04;100073.64;236364;1195;139062;-61
2021/09/30 10:19:58;;;;;;;8.80;5.30;;;;;;;14.61;69.92;100084.73;236129;1195;139190;-61
2021/09/30 10:25:01;;;;;;;62.40;39.20;;;;;;;14.60;69.78;100091.59;236016;1195;139261;-64
2021/09/30 10:30:05;;;;;;;9.80;5.80;;;;;;;14.59;69.70;100087.88;236089;1195;140227;-62
2021/09/30 10:35:13;;;;;;;6.80;5.00;;;;;;;14.58;69.35;100086.84;235887;1195;139246;-62
2021/09/30 10:40:23;;;;;;;13.30;5.80;;;;;;;14.54;69.33;100087.66;236123;1196;139130;-62
2021/09/30 10:45:37;;;;;;;12.90;7.50;;;;;;;14.55;69.35;100090.63;236143;1195;141442;-61
2021/09/30 10:50:45;;;;;;;14.40;6.40;;;;;;;14.58;69.00;100084.39;236251;1195;139808;-62
2021/09/30 10:55:48;;;;;;;15.20;7.40;;;;;;;14.54;68.97;100081.02;236116;1195;139216;-60
2021/09/30 11:00:55;;;;;;;14.70;6.90;;;;;;;14.52;68.73;100089.77;236055;1195;139717;-62
2021/09/30 11:06:05;;;;;;;13.40;7.30;;;;;;;14.50;68.86;100092.34;235948;1196;139350;-62
2021/09/30 11:11:13;;;;;;;15.10;7.40;;;;;;;14.46;68.70;100090.23;236072;1195;141903;-61
2021/09/30 11:16:18;;;;;;;15.40;8.00;;;;;;;14.46;68.65;100092.25;236200;1195;140316;-63
2021/09/30 11:21:30;;;;;;;;;;;;;;;14.49;68.71;100089.94;236115;1195;139738;-63
2021/09/30 11:26:53;;;;;;;20.10;7.50;;;;;;;14.45;68.48;100094.96;236341;1194;124812;-62
2021/09/30 11:31:57;;;;;;;13.90;7.10;;;;;;;14.37;68.53;100095.96;235839;1195;139411;-60
2021/09/30 11:37:13;;;;;;;17.70;7.80;;;;;;;14.34;68.49;100097.20;235745;1195;139308;-61
2021/09/30 11:42:17;;;;;;;16.60;8.00;;;;;;;14.38;68.63;100098.38;235747;1196;140410;-62
2021/09/30 11:47:21;;;;;;;12.10;6.70;;;;;;;14.37;68.54;100102.42;235985;1195;139595;-61
2021/09/30 11:52:24;;;;;;;12.90;6.90;;;;;;;14.29;68.31;100104.48;235893;1196;139754;-61
2021/09/30 11:57:27;;;;;;;11.10;6.60;;;;;;;14.20;68.25;100104.87;235704;1196;139328;-60
2021/09/30 12:02:30;;;;;;;12.70;6.40;;;;;;;14.13;68.14;100112.80;236005;1195;140096;-61
2021/09/30 12:07:33;;;;;;;13.20;6.60;;;;;;;14.06;68.25;100118.19;236092;1195;140440;-60
2021/09/30 12:12:36;;;;;;;19.10;7.00;;;;;;;14.05;68.39;100120.91;235947;1195;139318;-63
2021/09/30 12:17:40;;;;;;;13.70;7.10;;;;;;;14.06;68.52;100111.58;235776;1196;138900;-61
2021/09/30 12:22:47;;;;;;;16.30;8.00;;;;;;;14.07;68.55;100114.75;236067;1195;139194;-61
2021/09/30 12:27:52;;;;;;;12.30;7.80;;;;;;;14.02;68.76;100115.56;236095;1195;139309;-63
2021/09/30 12:33:03;;;;;;;13.10;7.40;;;;;;;13.97;68.76;100118.35;235992;1195;139142;-61
2021/09/30 12:38:19;;;;;;;13.30;7.50;;;;;;;13.90;69.06;100114.14;235867;1195;139930;-61
2021/09/30 12:43:28;;;;;;;15.40;7.60;;;;;;;13.87;69.20;100115.90;236059;1195;139168;-61
2021/09/30 12:48:33;;;;;;;13.10;8.00;;;;;;;13.85;69.38;100116.02;236131;1195;138981;-64
2021/09/30 12:53:52;;;;;;;14.00;7.50;;;;;;;13.83;69.39;100114.55;236256;1195;139155;-61
2021/09/30 12:58:55;;;;;;;14.20;7.10;;;;;;;13.86;69.55;100116.18;235861;1195;139839;-60
2021/09/30 13:04:25;;;;;;;11.20;7.10;;;;;;;13.90;69.70;100114.48;235933;1195;139726;-62
2021/09/30 13:09:39;;;;;;;15.10;7.90;;;;;;;13.93;69.57;100112.70;236152;1195;139550;-61
2021/09/30 13:14:48;;;;;;;15.70;8.00;;;;;;;13.92;69.47;100115.25;236161;1195;138949;-61
2021/09/30 13:20:10;;;;;;;17.70;8.60;;;;;;;13.90;69.47;100113.92;235774;1195;139470;-62
2021/09/30 13:25:16;;;;;;;13.30;7.90;;;;;;;13.88;69.40;100106.79;236103;1195;139343;-62
2021/09/30 13:30:26;;;;;;;19.10;8.80;;;;;;;13.86;69.35;100105.59;236121;1195;140405;-62
2021/09/30 13:35:32;;;;;;;19.30;8.60;;;;;;;13.89;69.42;100110.98;235807;1195;139955;-62
2021/09/30 13:40:35;;;;;;;15.00;7.80;;;;;;;13.92;69.46;100114.92;235774;1195;139901;-62
2021/09/30 13:45:38;;;;;;;15.90;8.10;;;;;;;13.95;69.37;100110.63;235955;1195;138980;-60
2021/09/30 13:50:42;;;;;;;59.20;36.00;;;;;;;13.97;69.24;100114.27;236276;1195;139473;-61
2021/09/30 13:55:45;;;;;;;14.30;7.80;;;;;;;13.96;68.96;100108.79;235052;1196;139434;-61
2021/09/30 14:00:48;;;;;;;11.90;7.70;;;;;;;13.91;68.74;100105.70;236212;1195;139861;-61
2021/09/30 14:05:51;;;;;;;14.50;7.50;;;;;;;13.88;68.69;100113.91;236043;1195;140038;-61
2021/09/30 14:10:55;;;;;;;15.00;8.30;;;;;;;13.83;68.64;100115.45;236024;1195;139306;-61
2021/09/30 14:15:59;;;;;;;14.60;8.40;;;;;;;13.83;68.65;100108.66;235774;1195;140025;-62
2021/09/30 14:21:02;;;;;;;16.50;7.70;;;;;;;13.86;68.62;100102.24;235964;1195;139709;-62
2021/09/30 14:26:05;;;;;;;17.50;8.30;;;;;;;13.89;68.71;100098.34;235859;1195;140274;-61
2021/09/30 14:31:09;;;;;;;15.10;7.30;;;;;;;13.88;68.74;100094.06;235842;1195;139412;-61
2021/09/30 14:36:12;;;;;;;11.60;6.00;;;;;;;13.88;68.60;100093.40;236143;1194;139749;-61
2021/09/30 14:41:15;;;;;;;18.60;6.10;;;;;;;13.89;68.48;100087.27;235967;1195;139720;-60
2021/09/30 14:46:18;;;;;;;14.30;6.70;;;;;;;13.90;68.42;100080.94;236046;1195;139268;-62
2021/09/30 14:51:21;;;;;;;19.30;9.40;;;;;;;13.94;68.43;100087.98;236336;1195;139084;-61
2021/09/30 14:56:25;;;;;;;14.10;7.10;;;;;;;14.03;68.49;100084.11;235936;1195;139295;-61
2021/09/30 15:01:28;;;;;;;10.00;6.10;;;;;;;14.05;68.36;100089.00;236121;1194;139380;-63
2021/09/30 15:06:36;;;;;;;17.20;8.50;;;;;;;14.05;68.24;100084.87;236247;1195;139644;-67
2021/09/30 15:11:40;;;;;;;12.70;5.90;;;;;;;14.05;68.11;100092.52;236054;1196;139439;-67
2021/09/30 15:16:57;;;;;;;12.20;5.90;;;;;;;14.04;67.91;100091.02;236346;1195;140148;-67
2021/09/30 15:22:00;;;;;;;16.10;6.10;;;;;;;14.06;67.88;100092.85;235421;1195;747593;-65
2021/09/30 15:27:03;;;;;;;13.40;5.80;;;;;;;14.10;68.02;100088.71;236339;1195;138999;-66
2021/09/30 15:32:07;;;;;;;16.30;7.00;;;;;;;14.10;67.93;100096.19;235864;1195;139404;-67
2021/09/30 15:37:13;;;;;;;58.20;31.60;;;;;;;14.10;67.80;100100.86;236310;1195;138623;-64
2021/09/30 15:42:23;;;;;;;33.50;16.70;;;;;;;14.14;68.19;100099.15;236614;1195;139447;-65
2021/09/30 15:47:27;;;;;;;12.90;6.50;;;;;;;14.29;68.28;100109.31;236529;1195;139291;-71
2021/09/30 15:52:30;;;;;;;16.40;6.80;;;;;;;14.29;67.77;100106.98;234477;1195;2527449;-66
2021/09/30 15:57:35;;;;;;;13.60;7.70;;;;;;;14.27;67.84;100107.69;236361;1195;140353;-64
2021/09/30 16:02:41;;;;;;;13.50;7.50;;;;;;;14.22;67.68;100104.20;236638;1194;138972;-71
2021/09/30 16:07:45;;;;;;;12.40;7.20;;;;;;;14.23;67.81;100113.41;235692;1195;139282;-67
2021/09/30 16:12:48;;;;;;;22.00;8.30;;;;;;;14.22;67.92;100118.13;235771;1195;139069;-64
2021/09/30 16:17:52;;;;;;;17.90;9.50;;;;;;;14.25;68.58;100117.44;236403;1195;138902;-67
2021/09/30 16:22:58;;;;;;;60.70;42.30;;;;;;;15.50;72.53;100117.27;236684;1195;139538;-63
2021/09/30 16:28:01;;;;;;;18.70;7.70;;;;;;;16.19;68.96;100120.11;235875;1196;139641;-63
2021/09/30 16:33:04;;;;;;;16.80;7.20;;;;;;;15.90;66.81;100123.86;236405;1195;139113;-64
2021/09/30 16:38:07;;;;;;;17.20;7.20;;;;;;;15.54;66.28;100126.39;236115;1195;139934;-69
2021/09/30 16:43:10;;;;;;;20.80;7.10;;;;;;;15.19;66.26;100134.14;235617;1195;139212;-66
2021/09/30 16:48:14;;;;;;;16.10;7.10;;;;;;;14.96;66.39;100141.88;236179;1195;139928;-63
2021/09/30 16:53:19;;;;;;;13.80;6.80;;;;;;;14.75;66.69;100145.49;236510;1195;139263;-63
2021/09/30 16:58:23;;;;;;;19.20;7.50;;;;;;;14.60;66.95;100147.67;236744;1195;139704;-63
2021/09/30 17:03:27;;;;;;;19.00;6.60;;;;;;;14.45;67.10;100150.50;236422;1194;138976;-63
2021/09/30 17:08:30;;;;;;;19.30;7.40;;;;;;;14.36;67.37;100147.44;236279;1195;140176;-63
2021/09/30 17:13:33;;;;;;;16.90;7.30;;;;;;;14.32;67.40;100153.05;236160;1195;140244;-64
2021/09/30 17:18:38;;;;;;;17.60;6.70;;;;;;;14.27;67.50;100146.38;236197;1195;139015;-62
2021/09/30 17:23:41;;;;;;;18.90;6.70;;;;;;;14.22;67.55;100145.29;236082;1195;139462;-63
2021/09/30 17:28:45;;;;;;;22.00;7.40;;;;;;;14.16;67.49;100149.88;236065;1195;139727;-64
2021/09/30 17:33:48;;;;;;;13.50;7.20;;;;;;;14.12;67.63;100158.38;235978;1194;138696;-61
2021/09/30 17:38:54;;;;;;;15.30;6.60;;;;;;;14.10;67.87;100153.84;235748;1195;142358;-64
2021/09/30 17:43:57;;;;;;;16.20;7.30;;;;;;;14.08;67.79;100151.25;236280;1194;140308;-63
2021/09/30 17:49:00;;;;;;;115.30;67.70;;;;;;;14.09;67.83;100150.50;236020;1195;139347;-62
2021/09/30 17:54:03;;;;;;;14.00;7.20;;;;;;;14.13;68.12;100151.86;236036;1195;139691;-61
2021/09/30 17:59:07;;;;;;;17.40;7.60;;;;;;;14.14;68.24;100156.42;236088;1195;139885;-63
2021/09/30 18:04:10;;;;;;;16.80;7.20;;;;;;;14.10;68.08;100161.14;235515;1195;139301;-68
2021/09/30 18:09:13;;;;;;;14.80;7.40;;;;;;;14.06;68.11;100158.89;235980;1195;142205;-61
2021/09/30 18:14:16;;;;;;;12.80;6.80;;;;;;;14.01;68.30;100162.02;236098;1195;139167;-62
2021/09/30 18:19:21;;;;;;;16.60;7.10;;;;;;;13.99;68.46;100164.11;235955;1195;140747;-63
2021/09/30 18:29:40;;;;;;;16.80;7.20;;;;;;;14.03;68.77;100162.45;236402;1195;139469;-62
2021/09/30 18:34:44;;;;;;;17.70;7.40;;;;;;;14.04;68.92;100164.17;236460;1195;139204;-66
2021/09/30 18:39:47;;;;;;;16.00;7.80;;;;;;;14.03;68.64;100172.61;236233;1195;139779;-63
2021/09/30 18:44:50;;;;;;;13.70;7.30;;;;;;;13.96;68.74;100174.98;236637;1195;139297;-63
2021/09/30 18:49:53;;;;;;;14.30;7.30;;;;;;;13.91;68.75;100178.33;236413;1195;139173;-63
2021/09/30 18:55:00;;;;;;;13.90;6.90;;;;;;;13.92;68.80;100185.04;236702;1195;140246;-61
2021/09/30 19:00:06;;;;;;;15.00;8.30;;;;;;;13.94;68.90;100190.77;236513;1195;139069;-62
2021/09/30 19:05:10;;;;;;;19.60;7.30;;;;;;;13.97;69.18;100188.13;236275;1195;139719;-63
2021/09/30 19:10:13;;;;;;;17.10;8.30;;;;;;;13.99;69.27;100189.29;236239;1195;139458;-64
2021/09/30 19:15:17;;;;;;;17.80;7.50;;;;;;;13.97;69.21;100186.54;236619;1195;139990;-64
2021/09/30 19:20:21;;;;;;;17.40;7.90;;;;;;;13.90;69.22;100182.65;235792;1195;139441;-62
2021/09/30 19:25:26;;;;;;;20.40;8.20;;;;;;;13.88;69.31;100184.71;236017;1195;141547;-64
2021/09/30 19:30:31;;;;;;;17.80;7.90;;;;;;;13.90;69.40;100185.52;235999;1194;140104;-66
2021/09/30 19:35:35;;;;;;;20.90;8.30;;;;;;;13.94;69.45;100188.66;236055;1194;138919;-64
2021/09/30 19:40:39;;;;;;;15.20;8.00;;;;;;;13.95;69.56;100183.06;235675;1195;140216;-63
2021/09/30 19:45:43;;;;;;;23.00;10.10;;;;;;;13.94;69.57;100179.55;236008;1195;140569;-65
2021/09/30 19:50:48;;;;;;;25.10;9.60;;;;;;;13.88;69.55;100176.17;235857;1196;139602;-65
2021/09/30 19:55:52;;;;;;;24.60;9.70;;;;;;;13.86;69.67;100171.98;235859;1195;139734;-63
2021/09/30 20:00:59;;;;;;;19.70;7.90;;;;;;;13.85;69.72;100173.46;235988;1195;139980;-61
2021/09/30 20:06:03;;;;;;;22.40;9.10;;;;;;;13.86;69.84;100180.73;236144;1195;138977;-63
2021/09/30 20:11:06;;;;;;;20.50;8.50;;;;;;;13.85;69.84;100183.65;236057;1195;140471;-67
2021/09/30 20:16:09;;;;;;;21.50;8.80;;;;;;;13.79;69.72;100195.23;235709;1195;139705;-62
2021/09/30 20:21:12;;;;;;;19.30;8.50;;;;;;;13.75;70.07;100195.65;236082;1195;139032;-62
2021/09/30 20:26:16;;;;;;;116.30;66.00;;;;;;;13.78;70.15;100204.20;235955;1195;140258;-62
2021/09/30 20:31:19;;;;;;;27.00;10.30;;;;;;;13.84;70.26;100212.94;235887;1195;140927;-61
2021/09/30 20:36:22;;;;;;;20.60;10.10;;;;;;;13.86;70.05;100216.03;236052;1195;139545;-59
2021/09/30 20:41:26;;;;;;;27.30;10.50;;;;;;;13.83;69.99;100216.20;235898;1195;139264;-64
2021/09/30 20:46:29;;;;;;;26.80;11.10;;;;;;;13.77;69.98;100209.23;235902;1195;139462;-61
2021/09/30 20:51:32;;;;;;;23.80;10.70;;;;;;;13.65;69.80;100206.89;235596;1195;139041;-61
2021/09/30 20:56:35;;;;;;;24.00;10.30;;;;;;;13.54;69.65;100205.52;235692;1196;140495;-62
2021/09/30 21:01:39;;;;;;;27.20;11.80;;;;;;;13.49;69.89;100210.64;235671;1195;140535;-62
2021/09/30 21:06:43;;;;;;;40.60;12.10;;;;;;;13.48;70.02;100216.20;236187;1194;139704;-62
2021/09/30 21:11:46;;;;;;;32.20;12.90;;;;;;;13.43;69.85;100220.20;236260;1195;139589;-62
2021/09/30 21:16:50;;;;;;;34.30;11.90;;;;;;;13.32;69.74;100221.04;235786;1195;139706;-65
2021/09/30 21:21:53;;;;;;;31.50;11.90;;;;;;;13.20;69.78;100214.33;235735;1195;139620;-66
2021/09/30 21:26:57;;;;;;;30.80;11.60;;;;;;;13.14;69.76;100209.84;236097;1195;140587;-62
2021/09/30 21:32:00;;;;;;;31.10;12.20;;;;;;;13.13;69.80;100212.76;236138;1195;141192;-62
2021/09/30 21:37:06;;;;;;;29.80;13.20;;;;;;;13.05;69.65;100212.12;235951;1194;138997;-65
2021/09/30 21:42:09;;;;;;;30.90;12.70;;;;;;;12.93;69.61;100210.77;235924;1195;140108;-64
2021/09/30 21:47:12;;;;;;;33.50;11.90;;;;;;;12.76;69.30;100208.82;236080;1195;139590;-63
2021/09/30 21:52:16;;;;;;;35.20;12.80;;;;;;;12.60;69.55;100213.73;235888;1195;139717;-62
2021/09/30 21:57:19;;;;;;;31.40;11.50;;;;;;;12.58;69.81;100219.71;236024;1195;140353;-62
2021/09/30 22:02:22;;;;;;;33.30;12.40;;;;;;;12.55;69.55;100214.02;235577;1195;140336;-62
2021/09/30 22:07:27;;;;;;;31.70;13.00;;;;;;;12.46;69.62;100216.94;234130;1196;139733;-63
2021/09/30 22:12:31;;;;;;;31.70;13.50;;;;;;;12.43;69.86;100218.73;234523;1195;139301;-62
2021/09/30 22:17:37;;;;;;;30.80;12.60;;;;;;;12.38;69.87;100219.70;233869;1195;139671;-64
2021/09/30 22:22:40;;;;;;;20.80;11.30;;;;;;;12.27;69.74;100227.54;234246;1195;231390;-63
2021/09/30 22:27:45;;;;;;;28.80;11.40;;;;;;;12.13;69.90;100224.32;234930;1195;139511;-64
2021/09/30 22:32:49;;;;;;;19.70;11.40;;;;;;;12.03;69.69;100234.93;235001;1195;140195;-64
2021/09/30 22:37:52;;;;;;;23.60;12.10;;;;;;;12.00;69.86;100233.86;235742;1195;139475;-64
2021/09/30 22:42:58;;;;;;;22.80;12.40;;;;;;;11.97;70.22;100241.99;234316;1195;139314;-65
2021/09/30 22:48:02;;;;;;;21.50;12.10;;;;;;;11.96;70.03;100241.30;234641;1195;138758;-67
2021/09/30 22:53:11;;;;;;;24.20;11.70;;;;;;;11.88;69.74;100245.27;234406;1196;139503;-68
2021/09/30 22:58:17;;;;;;;29.60;11.60;;;;;;;11.76;69.60;100245.77;234698;1195;139325;-66
2021/09/30 23:03:24;;;;;;;24.00;11.00;;;;;;;11.66;69.74;100242.56;235008;1195;138879;-62
2021/09/30 23:08:37;;;;;;;17.20;10.00;;;;;;;11.59;69.89;100241.99;234383;1195;140939;-64
2021/09/30 23:13:42;;;;;;;17.40;10.30;;;;;;;11.51;69.78;100232.04;234049;1194;139218;-63
2021/09/30 23:18:45;;;;;;;17.90;10.70;;;;;;;11.40;69.53;100236.50;234984;1193;139138;-67
2021/09/30 23:23:49;;;;;;;21.90;10.50;;;;;;;11.29;69.42;100237.69;234973;1195;139330;-69
2021/09/30 23:28:53;;;;;;;17.70;10.90;;;;;;;11.21;69.81;100243.39;235174;1196;139748;-67
2021/09/30 23:33:57;;;;;;;18.50;11.20;;;;;;;11.10;69.64;100244.24;235955;1195;139449;-66
2021/09/30 23:39:01;;;;;;;16.50;10.10;;;;;;;11.01;69.76;100247.29;234945;1195;139775;-62
2021/09/30 23:44:05;;;;;;;17.60;10.90;;;;;;;10.96;69.55;100248.62;234152;1196;139563;-65
2021/09/30 23:49:09;;;;;;;16.10;10.20;;;;;;;10.86;69.20;100248.67;234658;1196;140594;-67
2021/09/30 23:54:12;;;;;;;15.10;10.10;;;;;;;10.80;69.59;100249.45;235515;1196;139218;-69
2021/09/30 23:59:19;;;;;;;17.10;10.50;;;;;;;10.74;69.61;100246.37;234981;1196;138937;-66
